Ana Sayfa
METAR-TAF:

METAR-TAF

Havaalanları :

Phu Quoc, Vietnam

Enlem: 10-10-18N, Boylam: 103-59-28E, yükseklik: 11 m

Güncel hava durumu gözlemi

Rapor saat 19:00 UTC de 22 dakika önce yapıldı.
Rüzgar değişken yönden 1 kt
Sıcaklık 18°C
Nem 94%
Basınç 1010 hPa
Görüş mesafesi 10 km veya daha fazla
1500 m altında bulut yok ve kümülonimbus yok

METAR: VVPQ 101900Z VRB01KT CAVOK 18/17 Q1010 NOSIG

Saat: 02:22 (19:22 UTC)

Tahmin

Rapor saat 17:00 UTC de 2 saat ve 22 dakika önce yapıldı.
Ayın 10'si saat 18 UTC'den ayın 11'si saat 18 UTC'ye kadar geçerli Tahmin
Rüzgar değişken yönden 3 kt
Görüş mesafesi 10 km veya daha fazla
1700 ft yükseklikte parçalı bulutlu
Dönüşüyor
ayın 11'si saat 01 UTC'den ayın 11'si saat 02 UTC'ye kadar
Rüzgar doğu/kuzeydoğudan 10 kt

TAF: VVPQ 101700Z 1018/1118 VRB03KT 9999 SCT017 BECMG 1101/1102 06010KT

4.000'den fazla havaalanı için hava durumu gözlemleri ve tahminleri (METAR ve TAF raporları).

Kullanılabilir istasyonlar harita üzerinde sarı ve kırmızı noktalarla gösterilir.

İstasyonun adını görmek için fareyi noktanın üzerinde gezdirin.

Sonrasında hava gözlem ve tahminlerini görmek için tıklayın.

Haritayı değiştirmek için: yaklaştırmak için siyah artı işaretli yeşil düğmeye ve uzaklaştırmak için de eksi işaretli düğmeye hızla tıklayın; bitişik haritalar için yeşil okları kullanın.


METAR-TAF: